Etusivu
METAR-TAF:

METAR-TAF

Lentoasemat :

Shijiazhuang, Kiina

Leveyspiiri: 38-16-51N, Pituuspiiri: 114-41-48E, korkeus merenpinnasta: 233 m

Tämänhetkinen sää

Tämä raportti tehtiin 30 minuuttia sitten, kello 05.00 UTC
Tuuli 6 kn koillisesta, vaihdellen pohjoisen/luoteen ja idän välillä
Lämpötila 36°C
Kosteus 18%
Ilmanpaine 996 hPa
Näkyvyys 10 km tai enemmän
ei pilviä alle 1500 m:ssä eikä cumulonimbus-pilviä

METAR: ZBSJ 220500Z 05003MPS 340V100 CAVOK 36/08 Q0996 NOSIG

Aika: 13:30 (05:30 UTC)

Sääennuste

Tämä raportti tehtiin 8 tuntia ja 14 minuuttia sitten, kello 21.16 UTC
Ennuste voimassa 22. päivästä klo 00 UTC - 22. päivään klo 24 UTC
Tuuli 8 kn pohjoisen/luoteesta
Näkyvyys: 3000 m
usvaa,

TAF: ZBSJ 212116Z 2200/2224 33004MPS 3000 HZ NSC TX38/2207Z TN20/2222Z

Säähavainnot ja -ennusteet yli 4000 lentoasemalta (METAR- ja TAF-raportit).

Käytössä olevat sääasemat on merkitty karttaan keltaisilla ja punaisilla pisteillä.

Aseta hiiri pisteen päälle nähdäksesi sääaseman nimen.

Klikkaa sitten nähdäksesi säähavainnot ja -ennusteet.

Kartan vaihtaminen: klikkaa mustalla rastilla varustettuja vihreitä pisteitä, niin voit zoomata sisään; viivalla varustettua vihreää pistettä, niin voit zoomata ulos tai vihreitä nuolia, niin pääset viereisille kartoille.


METAR-TAF: